createdAt,value
2023-05-03T00:00:38.266Z,0.00
2023-05-03T00:01:38.317Z,0.00
2023-05-03T00:02:38.308Z,0.00
2023-05-03T00:03:38.234Z,0.00
2023-05-03T00:04:38.217Z,0.00
2023-05-03T00:05:38.272Z,0.00
2023-05-03T00:06:38.325Z,0.00
2023-05-03T00:07:38.186Z,0.00
2023-05-03T00:08:38.171Z,0.00
2023-05-03T00:09:38.159Z,0.00
2023-05-03T00:10:38.161Z,0.00
2023-05-03T00:11:38.134Z,0.00
2023-05-03T00:12:38.142Z,0.00
2023-05-03T00:13:38.110Z,0.00
2023-05-03T00:14:38.108Z,0.00
2023-05-03T00:15:38.088Z,0.00
2023-05-03T00:16:38.114Z,0.00
2023-05-03T00:17:38.080Z,0.00
2023-05-03T00:18:38.054Z,0.00
2023-05-03T00:19:38.052Z,0.00
2023-05-03T00:20:38.036Z,0.00
2023-05-03T00:21:38.027Z,0.00
2023-05-03T00:22:38.019Z,0.00
2023-05-03T00:23:37.998Z,0.00
2023-05-03T00:24:37.999Z,0.00
2023-05-03T00:25:37.989Z,0.00
2023-05-03T00:26:37.977Z,0.00
2023-05-03T00:27:37.960Z,0.00
2023-05-03T00:28:37.943Z,0.00
2023-05-03T00:29:37.941Z,0.00
2023-05-03T00:30:37.914Z,0.00
2023-05-03T00:31:37.979Z,0.00
2023-05-03T00:32:38.060Z,0.00
2023-05-03T00:33:37.922Z,0.00
2023-05-03T00:34:37.881Z,0.00
2023-05-03T00:35:37.868Z,0.00
2023-05-03T00:36:37.866Z,0.00
2023-05-03T00:37:37.858Z,0.00
2023-05-03T00:38:37.823Z,0.00
2023-05-03T00:39:37.819Z,0.00
2023-05-03T00:40:37.807Z,0.00
2023-05-03T00:41:37.797Z,0.00
2023-05-03T00:42:37.771Z,0.00
2023-05-03T00:43:38.105Z,0.00
2023-05-03T00:44:37.756Z,0.00
2023-05-03T00:45:37.743Z,0.00
2023-05-03T00:46:37.805Z,0.00
2023-05-03T00:47:37.778Z,0.00
2023-05-03T00:48:37.720Z,0.00
2023-05-03T00:49:37.717Z,0.00
2023-05-03T00:50:37.711Z,0.00
2023-05-03T00:51:37.703Z,0.00
2023-05-03T00:52:37.679Z,0.00
2023-05-03T00:53:37.671Z,0.00
2023-05-03T00:54:37.661Z,0.00
2023-05-03T00:55:37.628Z,0.00
2023-05-03T00:56:47.896Z,0.00
2023-05-03T00:57:37.640Z,0.00
2023-05-03T00:58:37.607Z,0.00
2023-05-03T00:59:37.584Z,0.00
2023-05-03T01:00:37.579Z,0.00
2023-05-03T01:01:37.593Z,0.00
2023-05-03T01:02:37.742Z,0.00
2023-05-03T01:03:37.987Z,0.00
2023-05-03T01:04:37.532Z,0.00
2023-05-03T01:05:37.532Z,0.00
2023-05-03T01:06:37.562Z,0.00
2023-05-03T01:07:37.518Z,0.00
2023-05-03T01:08:37.481Z,0.00
2023-05-03T01:09:37.494Z,0.00
2023-05-03T01:10:37.463Z,0.00
2023-05-03T01:11:37.470Z,0.00
2023-05-03T01:12:37.453Z,0.00
2023-05-03T01:13:37.435Z,0.00
2023-05-03T01:14:37.417Z,0.00
2023-05-03T01:15:37.428Z,0.00
2023-05-03T01:16:37.460Z,0.00
2023-05-03T01:17:37.425Z,0.00
2023-05-03T01:18:37.385Z,0.00
2023-05-03T01:19:37.371Z,0.00
2023-05-03T01:20:37.351Z,0.00
2023-05-03T01:21:37.353Z,0.00
2023-05-03T01:22:37.332Z,0.00
2023-05-03T01:23:37.314Z,0.00
2023-05-03T01:24:37.311Z,0.00
2023-05-03T01:25:37.322Z,0.00
2023-05-03T01:26:37.292Z,0.00
2023-05-03T01:27:37.279Z,0.00
2023-05-03T01:28:37.262Z,0.00
2023-05-03T01:29:37.253Z,0.00
2023-05-03T01:30:37.230Z,0.00
2023-05-03T01:31:37.266Z,0.00
2023-05-03T01:32:37.309Z,0.00
2023-05-03T01:33:37.211Z,0.00
2023-05-03T01:34:37.213Z,0.00
2023-05-03T01:35:37.189Z,0.00
2023-05-03T01:36:37.161Z,0.00
2023-05-03T01:37:37.165Z,0.00
2023-05-03T01:38:37.175Z,0.00
2023-05-03T01:39:37.159Z,0.00
2023-05-03T01:40:37.120Z,0.00
2023-05-03T01:41:37.110Z,0.00
2023-05-03T01:42:37.095Z,0.00
2023-05-03T01:43:37.086Z,0.00
2023-05-03T01:44:37.088Z,0.00
2023-05-03T01:45:37.089Z,0.00
2023-05-03T01:46:37.053Z,0.00
2023-05-03T01:47:37.097Z,0.00
2023-05-03T01:48:37.032Z,0.00
2023-05-03T01:49:37.038Z,0.00
2023-05-03T01:50:37.020Z,0.00
2023-05-03T01:51:37.003Z,0.00
2023-05-03T01:52:36.992Z,0.00
2023-05-03T01:53:36.992Z,0.00
2023-05-03T01:54:36.974Z,0.00
2023-05-03T01:55:36.965Z,0.00
2023-05-03T01:56:36.980Z,0.00
2023-05-03T01:57:36.942Z,0.00
2023-05-03T01:58:36.913Z,0.00
2023-05-03T01:59:36.928Z,0.00
2023-05-03T02:00:36.914Z,0.00
2023-05-03T02:01:36.935Z,0.00
2023-05-03T02:02:36.901Z,0.00
2023-05-03T02:03:36.886Z,0.00
2023-05-03T02:04:36.910Z,0.00
2023-05-03T02:05:36.860Z,0.00
2023-05-03T02:06:36.828Z,0.00
2023-05-03T02:07:36.847Z,0.00
2023-05-03T02:08:36.825Z,0.00
2023-05-03T02:09:36.803Z,0.00
2023-05-03T02:10:36.796Z,0.00
2023-05-03T02:11:36.778Z,0.00
2023-05-03T02:12:36.787Z,0.00
2023-05-03T02:13:36.779Z,0.00
2023-05-03T02:14:36.759Z,0.00
2023-05-03T02:15:36.727Z,0.00
2023-05-03T02:16:36.724Z,0.00
2023-05-03T02:17:36.750Z,0.00
2023-05-03T02:18:36.704Z,0.00
2023-05-03T02:19:36.711Z,0.00
2023-05-03T02:20:36.700Z,0.00
2023-05-03T02:21:36.659Z,0.00
2023-05-03T02:22:36.635Z,0.00
2023-05-03T02:23:36.653Z,0.00
2023-05-03T02:24:36.615Z,0.00
2023-05-03T02:25:36.666Z,0.00
2023-05-03T02:26:36.611Z,0.00
2023-05-03T02:27:36.610Z,0.00
2023-05-03T02:28:36.594Z,0.00
2023-05-03T02:29:36.614Z,0.00
2023-05-03T02:30:36.612Z,0.00
2023-05-03T02:31:36.583Z,0.00
2023-05-03T02:32:36.612Z,0.00
2023-05-03T02:33:36.545Z,0.00
2023-05-03T02:34:36.523Z,0.00
2023-05-03T02:35:36.519Z,0.00
2023-05-03T02:36:36.476Z,0.00
2023-05-03T02:37:36.506Z,0.00
2023-05-03T02:38:36.472Z,0.00
2023-05-03T02:39:36.460Z,0.00
2023-05-03T02:40:36.458Z,0.00
2023-05-03T02:41:36.448Z,0.00
2023-05-03T02:42:36.422Z,0.00
2023-05-03T02:43:36.425Z,0.00
2023-05-03T02:44:36.411Z,0.00
2023-05-03T02:45:36.402Z,0.00
2023-05-03T02:46:36.460Z,0.00
2023-05-03T02:47:36.403Z,0.00
2023-05-03T02:48:36.359Z,0.00
2023-05-03T02:49:36.365Z,0.00
2023-05-03T02:50:36.338Z,0.00
2023-05-03T02:51:36.339Z,0.00
2023-05-03T02:52:36.309Z,0.00
2023-05-03T02:53:36.307Z,0.00
2023-05-03T02:54:36.291Z,0.00
2023-05-03T02:55:36.285Z,0.00
2023-05-03T02:56:36.270Z,0.00
2023-05-03T02:57:36.273Z,0.00
2023-05-03T02:58:36.249Z,0.00
2023-05-03T02:59:36.243Z,0.00
2023-05-03T03:00:36.229Z,0.00
2023-05-03T03:01:36.311Z,0.00
2023-05-03T03:02:36.284Z,0.00
2023-05-03T03:03:36.426Z,0.00
2023-05-03T03:04:36.164Z,0.00
2023-05-03T03:05:36.160Z,0.00
2023-05-03T03:06:36.231Z,0.00
2023-05-03T03:07:36.135Z,0.00
2023-05-03T03:08:36.129Z,0.00
2023-05-03T03:09:36.163Z,0.00
2023-05-03T03:10:36.096Z,0.00
2023-05-03T03:11:36.112Z,0.00
2023-05-03T03:12:36.088Z,0.00
2023-05-03T03:13:36.082Z,0.00
2023-05-03T03:14:36.059Z,0.00
2023-05-03T03:15:36.057Z,0.00
2023-05-03T03:16:36.179Z,0.00
2023-05-03T03:17:36.055Z,0.00
2023-05-03T03:18:36.037Z,0.00
2023-05-03T03:19:36.014Z,0.00
2023-05-03T03:20:35.992Z,0.00
2023-05-03T03:21:35.993Z,0.00
2023-05-03T03:22:35.971Z,0.00
2023-05-03T03:23:35.964Z,0.00
2023-05-03T03:24:35.954Z,0.00
2023-05-03T03:25:35.952Z,0.00
2023-05-03T03:26:35.936Z,0.00
2023-05-03T03:27:37.488Z,0.00
2023-05-03T03:28:35.915Z,0.00
2023-05-03T03:29:35.890Z,0.00
2023-05-03T03:30:35.882Z,0.00
2023-05-03T03:31:35.878Z,0.00
2023-05-03T03:32:35.898Z,0.00
2023-05-03T03:33:35.851Z,0.00
2023-05-03T03:34:35.833Z,0.00
2023-05-03T03:35:35.817Z,0.00
2023-05-03T03:36:35.809Z,0.00
2023-05-03T03:37:35.796Z,0.00
2023-05-03T03:38:35.837Z,0.00
2023-05-03T03:39:35.771Z,0.00
2023-05-03T03:40:35.763Z,0.00
2023-05-03T03:41:35.772Z,0.00
2023-05-03T03:42:35.724Z,0.00
2023-05-03T03:43:35.739Z,0.00
2023-05-03T03:44:35.730Z,0.00
2023-05-03T03:45:35.701Z,0.00
2023-05-03T03:46:35.790Z,0.00
2023-05-03T03:47:35.728Z,0.00
2023-05-03T03:48:35.682Z,0.00
2023-05-03T03:49:35.673Z,0.00
2023-05-03T03:50:35.668Z,0.00
2023-05-03T03:51:35.647Z,0.00
2023-05-03T03:52:35.629Z,0.00
2023-05-03T03:53:35.634Z,0.00
2023-05-03T03:54:35.600Z,0.00
2023-05-03T03:55:35.611Z,0.00
2023-05-03T03:56:35.586Z,0.00
2023-05-03T03:57:35.579Z,0.00
2023-05-03T03:58:35.567Z,0.00
2023-05-03T03:59:35.566Z,0.00
2023-05-03T04:00:35.541Z,0.00
2023-05-03T04:01:35.527Z,0.00
2023-05-03T04:02:35.613Z,0.00
2023-05-03T04:03:35.652Z,0.00
2023-05-03T04:04:35.531Z,0.00
2023-05-03T04:05:35.496Z,0.00
2023-05-03T04:06:35.556Z,0.00
2023-05-03T04:07:35.459Z,0.00
2023-05-03T04:08:35.451Z,0.00
2023-05-03T04:09:35.433Z,5.62
2023-05-03T04:10:35.417Z,5.62
2023-05-03T04:11:35.433Z,5.62
2023-05-03T04:12:35.415Z,5.62
2023-05-03T04:13:35.394Z,5.62
2023-05-03T04:14:35.410Z,5.62
2023-05-03T04:15:35.375Z,5.62
2023-05-03T04:16:37.299Z,5.62
2023-05-03T04:17:35.406Z,11.25
2023-05-03T04:18:35.331Z,11.25
2023-05-03T04:19:35.336Z,11.25
2023-05-03T04:20:35.325Z,11.25
2023-05-03T04:21:35.310Z,11.25
2023-05-03T04:22:35.302Z,11.25
2023-05-03T04:23:35.282Z,11.25
2023-05-03T04:24:35.285Z,11.25
2023-05-03T04:25:35.252Z,11.25
2023-05-03T04:26:35.296Z,16.88
2023-05-03T04:27:35.250Z,16.88
2023-05-03T04:28:35.244Z,16.88
2023-05-03T04:29:35.235Z,16.88
2023-05-03T04:30:35.244Z,16.88
2023-05-03T04:31:35.199Z,22.50
2023-05-03T04:32:35.240Z,22.50
2023-05-03T04:33:35.178Z,22.50
2023-05-03T04:34:35.137Z,22.50
2023-05-03T04:35:35.150Z,28.12
2023-05-03T04:36:35.124Z,28.12
2023-05-03T04:37:35.135Z,28.12
2023-05-03T04:38:35.104Z,28.12
2023-05-03T04:39:35.103Z,33.75
2023-05-03T04:40:35.088Z,33.75
2023-05-03T04:41:35.200Z,33.75
2023-05-03T04:42:35.085Z,39.38
2023-05-03T04:43:35.053Z,39.38
2023-05-03T04:44:35.062Z,39.38
2023-05-03T04:45:35.048Z,39.38
2023-05-03T04:46:35.045Z,45.00
2023-05-03T04:47:35.017Z,45.00
2023-05-03T04:48:35.014Z,45.00
2023-05-03T04:49:34.975Z,50.62
2023-05-03T04:50:34.972Z,45.00
2023-05-03T04:51:34.961Z,50.62
2023-05-03T04:52:34.956Z,50.62
2023-05-03T04:53:34.945Z,50.62
2023-05-03T04:54:34.936Z,50.62
2023-05-03T04:55:34.908Z,56.25
2023-05-03T04:56:34.908Z,56.25
2023-05-03T04:57:34.900Z,61.88
2023-05-03T04:58:34.874Z,56.25
2023-05-03T04:59:34.881Z,61.88
2023-05-03T05:00:34.849Z,61.88
2023-05-03T05:01:34.926Z,67.50
2023-05-03T05:02:34.880Z,67.50
2023-05-03T05:03:34.930Z,67.50
2023-05-03T05:04:34.820Z,61.88
2023-05-03T05:05:34.806Z,67.50
2023-05-03T05:06:34.913Z,67.50
2023-05-03T05:07:34.782Z,67.50
2023-05-03T05:08:34.773Z,67.50
2023-05-03T05:09:34.757Z,67.50
2023-05-03T05:10:34.748Z,67.50
2023-05-03T05:11:34.739Z,73.12
2023-05-03T05:12:34.729Z,78.75
2023-05-03T05:13:34.710Z,78.75
2023-05-03T05:14:34.726Z,78.75
2023-05-03T05:15:34.689Z,84.38
2023-05-03T05:16:34.766Z,84.38
2023-05-03T05:17:34.710Z,90.00
2023-05-03T05:18:34.726Z,84.38
2023-05-03T05:19:34.649Z,84.38
2023-05-03T05:20:34.634Z,84.38
2023-05-03T05:21:34.610Z,84.38
2023-05-03T05:22:34.609Z,90.00
2023-05-03T05:23:34.599Z,84.38
2023-05-03T05:24:34.593Z,84.38
2023-05-03T05:25:34.570Z,90.00
2023-05-03T05:26:34.570Z,84.38
2023-05-03T05:27:34.557Z,84.38
2023-05-03T05:28:34.540Z,90.00
2023-05-03T05:29:34.542Z,90.00
2023-05-03T05:30:34.513Z,90.00
2023-05-03T05:31:34.603Z,90.00
2023-05-03T05:32:34.516Z,95.62
2023-05-03T05:33:34.493Z,90.00
2023-05-03T05:34:42.415Z,90.00
2023-05-03T05:35:34.500Z,90.00
2023-05-03T05:36:34.435Z,90.00
2023-05-03T05:37:34.462Z,95.62
2023-05-03T05:38:34.443Z,95.62
2023-05-03T05:39:34.424Z,95.62
2023-05-03T05:40:34.420Z,95.62
2023-05-03T05:41:34.417Z,95.62
2023-05-03T05:42:34.400Z,95.62
2023-05-03T05:43:34.356Z,101.25
2023-05-03T05:44:34.374Z,101.25
2023-05-03T05:45:34.346Z,101.25
2023-05-03T05:46:34.371Z,101.25
2023-05-03T05:47:34.365Z,101.25
2023-05-03T05:48:34.322Z,101.25
2023-05-03T05:49:34.310Z,101.25
2023-05-03T05:50:34.299Z,101.25
2023-05-03T05:51:34.285Z,101.25
2023-05-03T05:52:34.382Z,101.25
2023-05-03T05:53:34.244Z,101.25
2023-05-03T05:54:34.251Z,101.25
2023-05-03T05:55:34.240Z,95.62
2023-05-03T05:56:34.224Z,101.25
2023-05-03T05:57:34.220Z,101.25
2023-05-03T05:58:34.208Z,101.25
2023-05-03T05:59:34.191Z,101.25
2023-05-03T06:00:34.195Z,101.25
2023-05-03T06:01:34.157Z,101.25
2023-05-03T06:02:34.277Z,101.25
2023-05-03T06:03:34.144Z,101.25
2023-05-03T06:04:34.140Z,101.25
2023-05-03T06:05:34.172Z,106.88
2023-05-03T06:06:34.128Z,112.50
2023-05-03T06:07:34.163Z,118.12
2023-05-03T06:08:34.108Z,112.50
2023-05-03T06:09:34.111Z,118.12
2023-05-03T06:10:34.082Z,112.50
2023-05-03T06:11:34.060Z,112.50
2023-05-03T06:12:34.054Z,112.50
2023-05-03T06:13:34.042Z,106.88
2023-05-03T06:14:34.043Z,112.50
2023-05-03T06:15:34.022Z,123.75
2023-05-03T06:16:34.094Z,118.12
2023-05-03T06:17:34.023Z,118.12
2023-05-03T06:18:33.992Z,123.75
2023-05-03T06:19:33.977Z,118.12
2023-05-03T06:20:33.972Z,118.12
2023-05-03T06:21:33.954Z,118.12
2023-05-03T06:22:33.969Z,123.75
2023-05-03T06:23:33.918Z,123.75
2023-05-03T06:24:33.924Z,118.12
2023-05-03T06:25:33.900Z,118.12
2023-05-03T06:26:33.886Z,123.75
2023-05-03T06:27:33.880Z,123.75
2023-05-03T06:28:33.856Z,129.38
2023-05-03T06:29:33.861Z,129.38
2023-05-03T06:30:33.851Z,135.00
2023-05-03T06:31:33.874Z,135.00
2023-05-03T06:32:33.852Z,135.00
2023-05-03T06:33:33.829Z,140.62
2023-05-03T06:34:33.807Z,146.25
2023-05-03T06:35:33.791Z,151.88
2023-05-03T06:36:33.802Z,151.88
2023-05-03T06:37:33.779Z,157.50
2023-05-03T06:38:33.750Z,163.12
2023-05-03T06:39:33.736Z,151.88
2023-05-03T06:40:34.108Z,157.50
2023-05-03T06:41:33.710Z,157.50
2023-05-03T06:42:33.733Z,157.50
2023-05-03T06:43:33.693Z,157.50
2023-05-03T06:44:33.690Z,163.12
2023-05-03T06:45:33.683Z,151.88
2023-05-03T06:46:33.676Z,151.88
2023-05-03T06:47:33.658Z,151.88
2023-05-03T06:48:33.702Z,163.12
2023-05-03T06:49:33.640Z,174.38
2023-05-03T06:50:33.630Z,180.00
2023-05-03T06:51:33.618Z,185.62
2023-05-03T06:52:33.599Z,180.00
2023-05-03T06:53:33.592Z,180.00
2023-05-03T06:54:33.606Z,185.62
2023-05-03T06:55:33.563Z,180.00
2023-05-03T06:56:33.559Z,185.62
2023-05-03T06:57:33.546Z,191.25
2023-05-03T06:58:33.552Z,180.00
2023-05-03T06:59:33.512Z,168.75
2023-05-03T07:00:33.555Z,174.38
2023-05-03T07:01:33.521Z,191.25
2023-05-03T07:02:33.585Z,202.50
2023-05-03T07:03:33.604Z,208.12
2023-05-03T07:04:33.473Z,208.12
2023-05-03T07:05:33.467Z,208.12
2023-05-03T07:06:40.750Z,208.12
2023-05-03T07:07:33.455Z,230.62
2023-05-03T07:08:33.423Z,225.00
2023-05-03T07:09:42.693Z,230.62
2023-05-03T07:10:33.393Z,230.62
2023-05-03T07:11:33.395Z,241.88
2023-05-03T07:12:33.370Z,241.88
2023-05-03T07:13:33.365Z,247.50
2023-05-03T07:14:33.347Z,230.62
2023-05-03T07:15:33.324Z,219.38
2023-05-03T07:16:33.375Z,219.38
2023-05-03T07:17:33.333Z,208.12
2023-05-03T07:18:33.328Z,202.50
2023-05-03T07:19:33.280Z,202.50
2023-05-03T07:20:33.268Z,202.50
2023-05-03T07:21:33.269Z,202.50
2023-05-03T07:22:33.284Z,208.12
2023-05-03T07:23:33.241Z,219.38
2023-05-03T07:24:33.244Z,213.75
2023-05-03T07:25:33.291Z,202.50
2023-05-03T07:26:33.220Z,202.50
2023-05-03T07:27:33.196Z,202.50
2023-05-03T07:28:33.196Z,202.50
2023-05-03T07:29:33.178Z,219.38
2023-05-03T07:30:33.182Z,208.12
2023-05-03T07:31:33.174Z,213.75
2023-05-03T07:32:33.333Z,225.00
2023-05-03T07:33:33.319Z,225.00
2023-05-03T07:34:33.149Z,230.62
2023-05-03T07:35:33.124Z,230.62
2023-05-03T07:36:33.148Z,230.62
2023-05-03T07:37:33.108Z,236.25
2023-05-03T07:38:33.096Z,241.88
2023-05-03T07:39:33.050Z,253.12
2023-05-03T07:40:33.128Z,258.75
2023-05-03T07:41:33.050Z,253.12
2023-05-03T07:42:33.056Z,241.88
2023-05-03T07:43:33.034Z,230.62
2023-05-03T07:44:33.025Z,247.50
2023-05-03T07:45:33.077Z,264.38
2023-05-03T07:46:32.993Z,258.75
2023-05-03T07:47:33.033Z,253.12
2023-05-03T07:48:32.965Z,253.12
2023-05-03T07:49:32.985Z,270.00
2023-05-03T07:50:32.954Z,309.38
2023-05-03T07:51:32.969Z,309.38
2023-05-03T07:52:32.925Z,286.88
2023-05-03T07:53:32.914Z,292.50
2023-05-03T07:54:32.913Z,309.38
2023-05-03T07:55:32.964Z,320.62
2023-05-03T07:56:32.917Z,331.88
2023-05-03T07:57:32.874Z,331.88
2023-05-03T07:58:40.196Z,320.62
2023-05-03T07:59:32.847Z,309.38
2023-05-03T08:00:32.854Z,326.25
2023-05-03T08:01:32.801Z,326.25
2023-05-03T08:02:32.923Z,331.88
2023-05-03T08:03:33.136Z,331.88
2023-05-03T08:04:32.910Z,309.38
2023-05-03T08:05:32.855Z,292.50
2023-05-03T08:06:32.860Z,298.12
2023-05-03T08:07:32.915Z,298.12
2023-05-03T08:08:32.744Z,298.12
2023-05-03T08:09:32.768Z,320.62
2023-05-03T08:10:32.739Z,376.88
2023-05-03T08:11:32.725Z,416.25
2023-05-03T08:12:32.719Z,382.50
2023-05-03T08:13:32.689Z,365.62
2023-05-03T08:14:32.677Z,354.38
2023-05-03T08:15:32.714Z,382.50
2023-05-03T08:16:32.738Z,399.38
2023-05-03T08:17:32.687Z,427.50
2023-05-03T08:18:32.618Z,421.88
2023-05-03T08:19:32.618Z,410.62
2023-05-03T08:20:32.643Z,393.75
2023-05-03T08:21:32.614Z,360.00
2023-05-03T08:22:32.606Z,343.12
2023-05-03T08:23:32.586Z,376.88
2023-05-03T08:24:32.604Z,376.88
2023-05-03T08:25:32.549Z,365.62
2023-05-03T08:26:32.556Z,354.38
2023-05-03T08:27:32.539Z,360.00
2023-05-03T08:28:32.545Z,393.75
2023-05-03T08:29:32.520Z,450.00
2023-05-03T08:30:32.569Z,438.75
2023-05-03T08:31:32.528Z,438.75
2023-05-03T08:32:32.517Z,450.00
2023-05-03T08:33:32.474Z,450.00
2023-05-03T08:34:32.460Z,483.75
2023-05-03T08:35:32.468Z,472.50
2023-05-03T08:36:32.441Z,421.88
2023-05-03T08:37:32.437Z,393.75
2023-05-03T08:38:32.457Z,421.88
2023-05-03T08:39:32.392Z,427.50
2023-05-03T08:40:32.397Z,421.88
2023-05-03T08:41:32.360Z,466.88
2023-05-03T08:42:32.403Z,506.25
2023-05-03T08:43:32.369Z,523.12
2023-05-03T08:44:32.350Z,506.25
2023-05-03T08:45:32.311Z,495.00
2023-05-03T08:46:32.345Z,495.00
2023-05-03T08:47:32.338Z,500.62
2023-05-03T08:48:32.312Z,472.50
2023-05-03T08:49:32.286Z,466.88
2023-05-03T08:50:32.288Z,483.75
2023-05-03T08:51:32.254Z,483.75
2023-05-03T08:52:32.247Z,506.25
2023-05-03T08:53:32.235Z,489.38
2023-05-03T08:54:32.209Z,444.38
2023-05-03T08:55:32.201Z,393.75
2023-05-03T08:56:32.191Z,427.50
2023-05-03T08:57:32.194Z,427.50
2023-05-03T08:58:32.161Z,455.62
2023-05-03T08:59:32.177Z,483.75
2023-05-03T09:00:32.166Z,472.50
2023-05-03T09:01:32.213Z,444.38
2023-05-03T09:02:32.212Z,416.25
2023-05-03T09:03:32.177Z,354.38
2023-05-03T09:04:32.129Z,315.00
2023-05-03T09:05:32.103Z,264.38
2023-05-03T09:06:32.167Z,247.50
2023-05-03T09:07:32.087Z,247.50
2023-05-03T09:08:32.092Z,275.62
2023-05-03T09:09:32.055Z,281.25
2023-05-03T09:10:32.069Z,258.75
2023-05-03T09:11:32.031Z,275.62
2023-05-03T09:12:32.065Z,241.88
2023-05-03T09:13:32.093Z,230.62
2023-05-03T09:14:31.987Z,264.38
2023-05-03T09:15:32.060Z,219.38
2023-05-03T09:16:32.010Z,213.75
2023-05-03T09:17:31.998Z,236.25
2023-05-03T09:18:31.965Z,253.12
2023-05-03T09:19:31.944Z,264.38
2023-05-03T09:20:31.922Z,230.62
2023-05-03T09:21:31.942Z,247.50
2023-05-03T09:22:31.909Z,247.50
2023-05-03T09:23:32.081Z,236.25
2023-05-03T09:24:31.877Z,241.88
2023-05-03T09:25:31.875Z,292.50
2023-05-03T09:26:31.899Z,275.62
2023-05-03T09:27:31.883Z,264.38
2023-05-03T09:28:31.823Z,258.75
2023-05-03T09:29:31.854Z,213.75
2023-05-03T09:30:31.813Z,208.12
2023-05-03T09:31:31.832Z,213.75
2023-05-03T09:32:31.805Z,196.88
2023-05-03T09:33:31.811Z,202.50
2023-05-03T09:34:31.832Z,202.50
2023-05-03T09:35:31.750Z,180.00
2023-05-03T09:36:31.753Z,180.00
2023-05-03T09:37:31.735Z,191.25
2023-05-03T09:38:31.720Z,196.88
2023-05-03T09:39:31.740Z,174.38
2023-05-03T09:40:31.722Z,168.75
2023-05-03T09:41:31.701Z,168.75
2023-05-03T09:42:31.698Z,163.12
2023-05-03T09:43:31.690Z,157.50
2023-05-03T09:44:31.670Z,163.12
2023-05-03T09:45:31.704Z,151.88
2023-05-03T09:46:31.754Z,163.12
2023-05-03T09:47:32.321Z,168.75
2023-05-03T09:48:31.607Z,168.75
2023-05-03T09:49:31.585Z,157.50
2023-05-03T09:50:31.581Z,163.12
2023-05-03T09:51:31.560Z,163.12
2023-05-03T09:52:31.556Z,180.00
2023-05-03T09:53:31.590Z,174.38
2023-05-03T09:54:31.538Z,174.38
2023-05-03T09:55:31.513Z,174.38
2023-05-03T09:56:31.512Z,168.75
2023-05-03T09:57:31.494Z,168.75
2023-05-03T09:58:31.481Z,174.38
2023-05-03T09:59:31.472Z,163.12
2023-05-03T10:00:31.450Z,191.25
2023-05-03T10:01:31.508Z,196.88
2023-05-03T10:02:31.504Z,168.75
2023-05-03T10:03:31.441Z,157.50
2023-05-03T10:04:31.428Z,191.25
2023-05-03T10:05:31.454Z,180.00
2023-05-03T10:06:31.461Z,168.75
2023-05-03T10:07:31.388Z,163.12
2023-05-03T10:08:31.378Z,174.38
2023-05-03T10:09:31.365Z,185.62
2023-05-03T10:10:31.359Z,168.75
2023-05-03T10:11:31.344Z,180.00
2023-05-03T10:12:31.335Z,180.00
2023-05-03T10:13:31.329Z,174.38
2023-05-03T10:14:31.308Z,174.38
2023-05-03T10:15:31.336Z,185.62
2023-05-03T10:16:31.358Z,208.12
2023-05-03T10:18:31.305Z,196.88
2023-05-03T10:19:31.262Z,191.25
2023-05-03T10:20:31.246Z,185.62
2023-05-03T10:21:31.255Z,185.62
2023-05-03T10:22:31.204Z,196.88
2023-05-03T10:23:31.212Z,219.38
2023-05-03T10:24:31.205Z,236.25
2023-05-03T10:25:31.190Z,247.50
2023-05-03T10:26:31.192Z,230.62
2023-05-03T10:27:31.150Z,213.75
2023-05-03T10:28:31.136Z,202.50
2023-05-03T10:29:31.204Z,213.75
2023-05-03T10:30:31.133Z,236.25
2023-05-03T10:31:31.146Z,241.88
2023-05-03T10:32:31.152Z,230.62
2023-05-03T10:33:31.077Z,219.38
2023-05-03T10:34:31.091Z,219.38
2023-05-03T10:35:31.069Z,219.38
2023-05-03T10:36:45.850Z,219.38
2023-05-03T10:37:31.050Z,225.00
2023-05-03T10:38:31.050Z,230.62
2023-05-03T10:39:31.035Z,225.00
2023-05-03T10:40:31.083Z,270.00
2023-05-03T10:41:31.008Z,264.38
2023-05-03T10:42:30.995Z,270.00
2023-05-03T10:43:31.000Z,281.25
2023-05-03T10:44:30.989Z,275.62
2023-05-03T10:45:30.974Z,270.00
2023-05-03T10:46:30.981Z,264.38
2023-05-03T10:47:31.020Z,270.00
2023-05-03T10:48:30.929Z,286.88
2023-05-03T10:49:30.931Z,292.50
2023-05-03T10:50:30.935Z,292.50
2023-05-03T10:51:31.058Z,303.75
2023-05-03T10:52:30.877Z,331.88
2023-05-03T10:53:30.906Z,337.50
2023-05-03T10:54:30.845Z,326.25
2023-05-03T10:55:30.909Z,320.62
2023-05-03T10:56:30.862Z,286.88
2023-05-03T10:57:30.836Z,286.88
2023-05-03T10:58:30.817Z,286.88
2023-05-03T10:59:30.825Z,292.50
2023-05-03T11:00:30.805Z,320.62
2023-05-03T11:01:30.807Z,348.75
2023-05-03T11:02:30.800Z,348.75
2023-05-03T11:03:30.823Z,337.50
2023-05-03T11:04:31.883Z,315.00
2023-05-03T11:05:30.759Z,292.50
2023-05-03T11:06:30.806Z,275.62
2023-05-03T11:07:30.738Z,275.62
2023-05-03T11:08:30.704Z,275.62
2023-05-03T11:09:30.713Z,292.50
2023-05-03T11:10:30.710Z,303.75
2023-05-03T11:11:30.699Z,303.75
2023-05-03T11:12:30.693Z,331.88
2023-05-03T11:13:30.707Z,303.75
2023-05-03T11:14:30.680Z,309.38
2023-05-03T11:15:30.641Z,343.12
2023-05-03T11:16:30.696Z,365.62
2023-05-03T11:17:30.663Z,388.12
2023-05-03T11:18:30.616Z,354.38
2023-05-03T11:19:30.612Z,337.50
2023-05-03T11:20:30.614Z,315.00
2023-05-03T11:21:30.599Z,315.00
2023-05-03T11:22:30.599Z,320.62
2023-05-03T11:23:30.551Z,331.88
2023-05-03T11:24:30.564Z,354.38
2023-05-03T11:25:30.532Z,354.38
2023-05-03T11:26:30.525Z,348.75
2023-05-03T11:27:30.570Z,337.50
2023-05-03T11:28:30.511Z,326.25
2023-05-03T11:29:30.502Z,320.62
2023-05-03T11:30:30.482Z,320.62
2023-05-03T11:31:30.512Z,320.62
2023-05-03T11:32:30.551Z,309.38
2023-05-03T11:33:30.455Z,331.88
2023-05-03T11:34:30.431Z,331.88
2023-05-03T11:35:30.442Z,326.25
2023-05-03T11:36:30.425Z,360.00
2023-05-03T11:37:30.445Z,382.50
2023-05-03T11:38:30.432Z,405.00
2023-05-03T11:39:30.396Z,455.62
2023-05-03T11:40:30.441Z,472.50
2023-05-03T11:41:30.392Z,433.12
2023-05-03T11:42:30.388Z,433.12
2023-05-03T11:43:30.371Z,444.38
2023-05-03T11:44:30.334Z,433.12
2023-05-03T11:45:30.403Z,433.12
2023-05-03T11:46:30.442Z,461.25
2023-05-03T11:47:30.369Z,450.00
2023-05-03T11:48:30.400Z,438.75
2023-05-03T11:49:30.284Z,466.88
2023-05-03T11:50:30.280Z,472.50
2023-05-03T11:51:30.496Z,461.25
2023-05-03T11:52:30.263Z,466.88
2023-05-03T11:53:30.245Z,466.88
2023-05-03T11:54:30.264Z,450.00
2023-05-03T11:55:30.256Z,438.75
2023-05-03T11:56:30.280Z,427.50
2023-05-03T11:57:30.257Z,410.62
2023-05-03T11:58:30.220Z,416.25
2023-05-03T11:59:30.203Z,405.00
2023-05-03T12:00:30.181Z,393.75
2023-05-03T12:01:30.325Z,371.25
2023-05-03T12:02:30.307Z,427.50
2023-05-03T12:03:32.400Z,433.12
2023-05-03T12:04:30.295Z,405.00
2023-05-03T12:05:30.434Z,410.62
2023-05-03T12:06:30.608Z,438.75
2023-05-03T12:07:30.364Z,427.50
2023-05-03T12:08:30.893Z,410.62
2023-05-03T12:09:30.277Z,416.25
2023-05-03T12:10:30.632Z,405.00
2023-05-03T12:11:32.501Z,427.50
2023-05-03T12:12:32.346Z,410.62
2023-05-03T12:13:33.169Z,427.50
2023-05-03T12:14:30.181Z,427.50
2023-05-03T12:15:30.263Z,438.75
2023-05-03T12:16:30.110Z,551.25
2023-05-03T12:17:30.160Z,534.38
2023-05-03T12:18:30.307Z,556.88
2023-05-03T12:19:32.760Z,500.62
2023-05-03T12:21:31.862Z,720.00
2023-05-03T12:22:30.888Z,2109.38
2023-05-03T12:23:30.138Z,2750.62
2023-05-03T12:24:32.948Z,2655.00
2023-05-03T12:25:33.572Z,2891.25
2023-05-03T12:26:30.018Z,2531.25
2023-05-03T12:27:32.492Z,3043.12
2023-05-03T12:28:29.915Z,663.75
2023-05-03T12:29:29.918Z,1119.38
2023-05-03T12:30:29.962Z,3037.50
2023-05-03T12:31:29.955Z,2604.38
2023-05-03T12:32:29.988Z,2542.50
2023-05-03T12:33:31.725Z,2868.75
2023-05-03T12:34:34.835Z,2745.00
2023-05-03T12:35:32.656Z,2643.75
2023-05-03T12:36:31.629Z,2784.38
2023-05-03T12:37:33.286Z,2424.38
2023-05-03T12:38:31.121Z,2581.88
2023-05-03T12:39:32.465Z,2936.25
2023-05-03T12:40:34.131Z,2660.62
2023-05-03T12:42:31.700Z,624.38
2023-05-03T12:43:29.776Z,2368.12
2023-05-03T12:44:29.786Z,2401.88
2023-05-03T12:45:30.829Z,1996.88
2023-05-03T12:46:34.520Z,2739.38
2023-05-03T12:47:29.840Z,2491.88
2023-05-03T12:48:32.554Z,2306.25
2023-05-03T12:49:29.943Z,1018.12